<?xml version="1.0" encoding="UTF-8" standalone="no" ?>
<gpx xmlns="http://www.topografix.com/GPX/1/1" xmlns:xsi="http://www.w3.org/2001/XMLSchema-instance" xsi:schemaLocation="http://www.topografix.com/GPX/1/1 http://www.topografix.com/GPX/1/1/gpx.xsd" version="1.1" creator="VisuGPX - https://www.visugpx.com">
  <metadata>
    <name>PORNICHET Promenade dans le bocage 11,26 km CTM A VERIFIER</name>
  </metadata>
  <wpt lat="47.2673" lon="-2.33055">
    <ele>6</ele>
    <name><![CDATA[Parking après l'hippodrome de Porniche]]></name>
  </wpt>
  <wpt lat="47.27008" lon="-2.31979">
    <ele>11</ele>
    <name><![CDATA[Chemin du Piadoux]]></name>
  </wpt>
  <wpt lat="47.27716" lon="-2.31066">
    <ele>16</ele>
    <name><![CDATA[Carrefour D392]]></name>
  </wpt>
  <wpt lat="47.27262" lon="-2.29634">
    <ele>31</ele>
    <name><![CDATA[Route du Parc de la fontaine]]></name>
  </wpt>
  <wpt lat="47.27052" lon="-2.29048">
    <ele>30</ele>
    <name><![CDATA[Chemin du Pont Hervo]]></name>
  </wpt>
  <wpt lat="47.26139" lon="-2.29347">
    <ele>34</ele>
    <name><![CDATA[Le Bignon Joli]]></name>
  </wpt>
  <wpt lat="47.25964" lon="-2.30122">
    <ele>19</ele>
    <name><![CDATA[a droite chemin des venelles a monnerie balise jau]]></name>
  </wpt>
  <wpt lat="47.26344" lon="-2.30576">
    <ele>26</ele>
    <name><![CDATA[La Villés Chaussée]]></name>
  </wpt>
  <wpt lat="47.26661" lon="-2.30691">
    <ele>28</ele>
    <name><![CDATA[Chemin de la fontaine de Pouligas]]></name>
  </wpt>
  <wpt lat="47.26831" lon="-2.30796">
    <ele>27</ele>
    <name><![CDATA[Route de la Ville Mouilleron]]></name>
  </wpt>
  <wpt lat="47.2683" lon="-2.31338">
    <ele>28</ele>
    <name><![CDATA[Chemin du Courtil du Lin]]></name>
  </wpt>
  <wpt lat="47.263" lon="-2.31717">
    <ele>5</ele>
    <name><![CDATA[Vers le Clos Roux]]></name>
  </wpt>
  <wpt lat="47.26301" lon="-2.32545">
    <ele>5</ele>
    <name><![CDATA[Ermur]]></name>
  </wpt>
  <wpt lat="47.2673" lon="-2.33055">
    <ele>6</ele>
    <name><![CDATA[Parking après l'hippodrome de Porniche]]></name>
  </wpt>
  <trk>
    <name><![CDATA[Promenade dans le bocage à Pornichet]]></name>
    <trkseg>
      <trkpt lat="47.2673" lon="-2.33055">
        <ele>6</ele>
        <time>2020-02-23T14:09:11+01:00</time>
      </trkpt>
      <trkpt lat="47.26731" lon="-2.33038">
        <ele>6</ele>
        <time>2020-02-23T14:09:44+01:00</time>
      </trkpt>
      <trkpt lat="47.26735" lon="-2.33001">
        <ele>7</ele>
        <time>2020-02-23T14:10:26+01:00</time>
      </trkpt>
      <trkpt lat="47.26739" lon="-2.32981">
        <ele>7</ele>
        <time>2020-02-23T14:10:51+01:00</time>
      </trkpt>
      <trkpt lat="47.26752" lon="-2.32968">
        <ele>7</ele>
        <time>2020-02-23T14:11:03+01:00</time>
      </trkpt>
      <trkpt lat="47.26762" lon="-2.32955">
        <ele>7</ele>
        <time>2020-02-23T14:11:16+01:00</time>
      </trkpt>
      <trkpt lat="47.26778" lon="-2.32932">
        <ele>7</ele>
        <time>2020-02-23T14:11:29+01:00</time>
      </trkpt>
      <trkpt lat="47.26797" lon="-2.32914">
        <ele>6</ele>
        <time>2020-02-23T14:11:45+01:00</time>
      </trkpt>
      <trkpt lat="47.26861" lon="-2.32874">
        <ele>7</ele>
        <time>2020-02-23T14:12:40+01:00</time>
      </trkpt>
      <trkpt lat="47.2683" lon="-2.32752">
        <ele>13</ele>
      </trkpt>
      <trkpt lat="47.26802" lon="-2.32693">
        <ele>15</ele>
        <time>2020-02-23T14:14:07+01:00</time>
      </trkpt>
      <trkpt lat="47.26808" lon="-2.32634">
        <ele>15</ele>
      </trkpt>
      <trkpt lat="47.26799" lon="-2.32591">
        <ele>16</ele>
      </trkpt>
      <trkpt lat="47.26788" lon="-2.32455">
        <ele>16</ele>
        <time>2020-02-23T14:16:15+01:00</time>
      </trkpt>
      <trkpt lat="47.26774" lon="-2.32372">
        <ele>17</ele>
      </trkpt>
      <trkpt lat="47.26825" lon="-2.32354">
        <ele>16</ele>
        <time>2020-02-23T14:16:52+01:00</time>
      </trkpt>
      <trkpt lat="47.2685" lon="-2.32348">
        <ele>14</ele>
        <time>2020-02-23T14:17:06+01:00</time>
      </trkpt>
      <trkpt lat="47.26871" lon="-2.32342">
        <ele>13</ele>
        <time>2020-02-23T14:17:19+01:00</time>
      </trkpt>
      <trkpt lat="47.26894" lon="-2.32339">
        <ele>11</ele>
        <time>2020-02-23T14:17:32+01:00</time>
      </trkpt>
      <trkpt lat="47.26917" lon="-2.32335">
        <ele>9</ele>
        <time>2020-02-23T14:17:45+01:00</time>
      </trkpt>
      <trkpt lat="47.26933" lon="-2.3236">
        <ele>8</ele>
        <time>2020-02-23T14:18:09+01:00</time>
      </trkpt>
      <trkpt lat="47.26941" lon="-2.32391">
        <ele>7</ele>
        <time>2020-02-23T14:18:23+01:00</time>
      </trkpt>
      <trkpt lat="47.26953" lon="-2.32421">
        <ele>6</ele>
        <time>2020-02-23T14:18:36+01:00</time>
      </trkpt>
      <trkpt lat="47.26972" lon="-2.32443">
        <ele>5</ele>
        <time>2020-02-23T14:18:51+01:00</time>
      </trkpt>
      <trkpt lat="47.26987" lon="-2.32467">
        <ele>5</ele>
        <time>2020-02-23T14:19:06+01:00</time>
      </trkpt>
      <trkpt lat="47.27001" lon="-2.32509">
        <ele>5</ele>
        <time>2020-02-23T14:19:19+01:00</time>
      </trkpt>
      <trkpt lat="47.27024" lon="-2.32495">
        <ele>4</ele>
        <time>2020-02-23T14:19:53+01:00</time>
      </trkpt>
      <trkpt lat="47.27031" lon="-2.32462">
        <ele>3</ele>
        <time>2020-02-23T14:20:07+01:00</time>
      </trkpt>
      <trkpt lat="47.27029" lon="-2.32427">
        <ele>3</ele>
        <time>2020-02-23T14:20:22+01:00</time>
      </trkpt>
      <trkpt lat="47.27026" lon="-2.3239">
        <ele>3</ele>
        <time>2020-02-23T14:20:53+01:00</time>
      </trkpt>
      <trkpt lat="47.27023" lon="-2.3236">
        <ele>3</ele>
        <time>2020-02-23T14:21:05+01:00</time>
      </trkpt>
      <trkpt lat="47.27022" lon="-2.32326">
        <ele>4</ele>
        <time>2020-02-23T14:21:18+01:00</time>
      </trkpt>
      <trkpt lat="47.27022" lon="-2.32293">
        <ele>3</ele>
        <time>2020-02-23T14:21:33+01:00</time>
      </trkpt>
      <trkpt lat="47.27022" lon="-2.32258">
        <ele>3</ele>
        <time>2020-02-23T14:21:47+01:00</time>
      </trkpt>
      <trkpt lat="47.27022" lon="-2.32223">
        <ele>3</ele>
        <time>2020-02-23T14:22:01+01:00</time>
      </trkpt>
      <trkpt lat="47.27016" lon="-2.32189">
        <ele>4</ele>
        <time>2020-02-23T14:22:18+01:00</time>
      </trkpt>
      <trkpt lat="47.27" lon="-2.32163">
        <ele>4</ele>
        <time>2020-02-23T14:22:32+01:00</time>
      </trkpt>
      <trkpt lat="47.26988" lon="-2.32142">
        <ele>5</ele>
        <time>2020-02-23T14:22:46+01:00</time>
      </trkpt>
      <trkpt lat="47.27007" lon="-2.32115">
        <ele>6</ele>
        <time>2020-02-23T14:23:01+01:00</time>
      </trkpt>
      <trkpt lat="47.27014" lon="-2.32082">
        <ele>7</ele>
        <time>2020-02-23T14:23:17+01:00</time>
      </trkpt>
      <trkpt lat="47.27016" lon="-2.32048">
        <ele>8</ele>
        <time>2020-02-23T14:23:33+01:00</time>
      </trkpt>
      <trkpt lat="47.27014" lon="-2.32013">
        <ele>9</ele>
        <time>2020-02-23T14:23:50+01:00</time>
      </trkpt>
      <trkpt lat="47.27008" lon="-2.31979">
        <ele>11</ele>
        <time>2020-02-23T14:24:35+01:00</time>
      </trkpt>
      <trkpt lat="47.27029" lon="-2.31962">
        <ele>10</ele>
        <time>2020-02-23T14:24:54+01:00</time>
      </trkpt>
      <trkpt lat="47.27063" lon="-2.3195">
        <ele>9</ele>
        <time>2020-02-23T14:25:10+01:00</time>
      </trkpt>
      <trkpt lat="47.27081" lon="-2.31954">
        <ele>8</ele>
        <time>2020-02-23T14:25:25+01:00</time>
      </trkpt>
      <trkpt lat="47.27099" lon="-2.31958">
        <ele>8</ele>
        <time>2020-02-23T14:25:54+01:00</time>
      </trkpt>
      <trkpt lat="47.2712" lon="-2.31969">
        <ele>8</ele>
        <time>2020-02-23T14:26:12+01:00</time>
      </trkpt>
      <trkpt lat="47.27141" lon="-2.31985">
        <ele>7</ele>
        <time>2020-02-23T14:26:30+01:00</time>
      </trkpt>
      <trkpt lat="47.27161" lon="-2.31999">
        <ele>7</ele>
        <time>2020-02-23T14:26:50+01:00</time>
      </trkpt>
      <trkpt lat="47.27177" lon="-2.31975">
        <ele>7</ele>
        <time>2020-02-23T14:27:05+01:00</time>
      </trkpt>
      <trkpt lat="47.27196" lon="-2.31955">
        <ele>8</ele>
        <time>2020-02-23T14:27:22+01:00</time>
      </trkpt>
      <trkpt lat="47.27221" lon="-2.31922">
        <ele>9</ele>
        <time>2020-02-23T14:27:33+01:00</time>
      </trkpt>
      <trkpt lat="47.27243" lon="-2.31928">
        <ele>10</ele>
        <time>2020-02-23T14:28:09+01:00</time>
      </trkpt>
      <trkpt lat="47.27266" lon="-2.31933">
        <ele>9</ele>
        <time>2020-02-23T14:28:25+01:00</time>
      </trkpt>
      <trkpt lat="47.27289" lon="-2.31941">
        <ele>9</ele>
        <time>2020-02-23T14:28:38+01:00</time>
      </trkpt>
      <trkpt lat="47.27304" lon="-2.3196">
        <ele>8</ele>
        <time>2020-02-23T14:28:52+01:00</time>
      </trkpt>
      <trkpt lat="47.27329" lon="-2.31977">
        <ele>7</ele>
        <time>2020-02-23T14:29:05+01:00</time>
      </trkpt>
      <trkpt lat="47.27353" lon="-2.31989">
        <ele>6</ele>
        <time>2020-02-23T14:29:19+01:00</time>
      </trkpt>
      <trkpt lat="47.27366" lon="-2.32005">
        <ele>6</ele>
        <time>2020-02-23T14:29:48+01:00</time>
      </trkpt>
      <trkpt lat="47.27386" lon="-2.32024">
        <ele>6</ele>
        <time>2020-02-23T14:30:05+01:00</time>
      </trkpt>
      <trkpt lat="47.27407" lon="-2.32039">
        <ele>6</ele>
        <time>2020-02-23T14:30:20+01:00</time>
      </trkpt>
      <trkpt lat="47.27421" lon="-2.32041">
        <ele>6</ele>
      </trkpt>
      <trkpt lat="47.2743" lon="-2.32034">
        <ele>7</ele>
        <time>2020-02-23T14:30:34+01:00</time>
      </trkpt>
      <trkpt lat="47.27442" lon="-2.32004">
        <ele>7</ele>
        <time>2020-02-23T14:30:47+01:00</time>
      </trkpt>
      <trkpt lat="47.27457" lon="-2.31978">
        <ele>7</ele>
        <time>2020-02-23T14:31:02+01:00</time>
      </trkpt>
      <trkpt lat="47.27467" lon="-2.31947">
        <ele>7</ele>
        <time>2020-02-23T14:31:16+01:00</time>
      </trkpt>
      <trkpt lat="47.27478" lon="-2.31918">
        <ele>7</ele>
        <time>2020-02-23T14:31:29+01:00</time>
      </trkpt>
      <trkpt lat="47.27491" lon="-2.31891">
        <ele>7</ele>
        <time>2020-02-23T14:31:41+01:00</time>
      </trkpt>
      <trkpt lat="47.27502" lon="-2.31858">
        <ele>6</ele>
        <time>2020-02-23T14:31:55+01:00</time>
      </trkpt>
      <trkpt lat="47.27512" lon="-2.31827">
        <ele>7</ele>
        <time>2020-02-23T14:32:09+01:00</time>
      </trkpt>
      <trkpt lat="47.27522" lon="-2.31795">
        <ele>8</ele>
        <time>2020-02-23T14:32:23+01:00</time>
      </trkpt>
      <trkpt lat="47.27529" lon="-2.31763">
        <ele>9</ele>
        <time>2020-02-23T14:32:38+01:00</time>
      </trkpt>
      <trkpt lat="47.27537" lon="-2.31729">
        <ele>9</ele>
        <time>2020-02-23T14:32:53+01:00</time>
      </trkpt>
      <trkpt lat="47.27544" lon="-2.31696">
        <ele>9</ele>
        <time>2020-02-23T14:33:11+01:00</time>
      </trkpt>
      <trkpt lat="47.2755" lon="-2.31661">
        <ele>9</ele>
        <time>2020-02-23T14:33:23+01:00</time>
      </trkpt>
      <trkpt lat="47.27557" lon="-2.31629">
        <ele>9</ele>
        <time>2020-02-23T14:33:37+01:00</time>
      </trkpt>
      <trkpt lat="47.27564" lon="-2.31596">
        <ele>9</ele>
        <time>2020-02-23T14:33:52+01:00</time>
      </trkpt>
      <trkpt lat="47.27575" lon="-2.31565">
        <ele>10</ele>
        <time>2020-02-23T14:34:06+01:00</time>
      </trkpt>
      <trkpt lat="47.27584" lon="-2.31534">
        <ele>10</ele>
        <time>2020-02-23T14:34:20+01:00</time>
      </trkpt>
      <trkpt lat="47.27601" lon="-2.31492">
        <ele>10</ele>
        <time>2020-02-23T14:34:35+01:00</time>
      </trkpt>
      <trkpt lat="47.2761" lon="-2.31453">
        <ele>11</ele>
        <time>2020-02-23T14:34:52+01:00</time>
      </trkpt>
      <trkpt lat="47.27619" lon="-2.31421">
        <ele>11</ele>
        <time>2020-02-23T14:35:08+01:00</time>
      </trkpt>
      <trkpt lat="47.27628" lon="-2.31393">
        <ele>11</ele>
        <time>2020-02-23T14:35:23+01:00</time>
      </trkpt>
      <trkpt lat="47.27633" lon="-2.31367">
        <ele>12</ele>
        <time>2020-02-23T14:35:35+01:00</time>
      </trkpt>
      <trkpt lat="47.27641" lon="-2.31337">
        <ele>13</ele>
        <time>2020-02-23T14:35:48+01:00</time>
      </trkpt>
      <trkpt lat="47.27654" lon="-2.31302">
        <ele>14</ele>
        <time>2020-02-23T14:36:03+01:00</time>
      </trkpt>
      <trkpt lat="47.27666" lon="-2.31266">
        <ele>15</ele>
        <time>2020-02-23T14:36:18+01:00</time>
      </trkpt>
      <trkpt lat="47.27672" lon="-2.31237">
        <ele>16</ele>
        <time>2020-02-23T14:36:33+01:00</time>
      </trkpt>
      <trkpt lat="47.27677" lon="-2.31214">
        <ele>16</ele>
        <time>2020-02-23T14:36:55+01:00</time>
      </trkpt>
      <trkpt lat="47.27686" lon="-2.31184">
        <ele>16</ele>
        <time>2020-02-23T14:37:10+01:00</time>
      </trkpt>
      <trkpt lat="47.27691" lon="-2.31156">
        <ele>16</ele>
        <time>2020-02-23T14:37:24+01:00</time>
      </trkpt>
      <trkpt lat="47.27697" lon="-2.31137">
        <ele>16</ele>
        <time>2020-02-23T14:37:40+01:00</time>
      </trkpt>
      <trkpt lat="47.27708" lon="-2.31108">
        <ele>15</ele>
        <time>2020-02-23T14:37:54+01:00</time>
      </trkpt>
      <trkpt lat="47.27716" lon="-2.31066">
        <ele>16</ele>
        <time>2020-02-23T14:38:25+01:00</time>
      </trkpt>
      <trkpt lat="47.27695" lon="-2.31016">
        <ele>16</ele>
        <time>2020-02-23T14:38:51+01:00</time>
      </trkpt>
      <trkpt lat="47.27682" lon="-2.3099">
        <ele>16</ele>
        <time>2020-02-23T14:39:07+01:00</time>
      </trkpt>
      <trkpt lat="47.27669" lon="-2.30957">
        <ele>16</ele>
        <time>2020-02-23T14:39:22+01:00</time>
      </trkpt>
      <trkpt lat="47.27654" lon="-2.30931">
        <ele>16</ele>
        <time>2020-02-23T14:39:38+01:00</time>
      </trkpt>
      <trkpt lat="47.27639" lon="-2.30904">
        <ele>17</ele>
        <time>2020-02-23T14:39:54+01:00</time>
      </trkpt>
      <trkpt lat="47.27628" lon="-2.30874">
        <ele>17</ele>
        <time>2020-02-23T14:40:09+01:00</time>
      </trkpt>
      <trkpt lat="47.27617" lon="-2.30843">
        <ele>18</ele>
        <time>2020-02-23T14:40:31+01:00</time>
      </trkpt>
      <trkpt lat="47.27604" lon="-2.30814">
        <ele>18</ele>
        <time>2020-02-23T14:40:45+01:00</time>
      </trkpt>
      <trkpt lat="47.27592" lon="-2.30785">
        <ele>18</ele>
        <time>2020-02-23T14:41:01+01:00</time>
      </trkpt>
      <trkpt lat="47.27579" lon="-2.30755">
        <ele>18</ele>
        <time>2020-02-23T14:41:13+01:00</time>
      </trkpt>
      <trkpt lat="47.27569" lon="-2.30725">
        <ele>18</ele>
        <time>2020-02-23T14:41:31+01:00</time>
      </trkpt>
      <trkpt lat="47.27563" lon="-2.30692">
        <ele>18</ele>
        <time>2020-02-23T14:41:44+01:00</time>
      </trkpt>
      <trkpt lat="47.27557" lon="-2.30657">
        <ele>19</ele>
        <time>2020-02-23T14:41:59+01:00</time>
      </trkpt>
      <trkpt lat="47.27547" lon="-2.30626">
        <ele>18</ele>
        <time>2020-02-23T14:42:14+01:00</time>
      </trkpt>
      <trkpt lat="47.27542" lon="-2.3059">
        <ele>18</ele>
        <time>2020-02-23T14:42:43+01:00</time>
      </trkpt>
      <trkpt lat="47.27531" lon="-2.3056">
        <ele>18</ele>
        <time>2020-02-23T14:43:09+01:00</time>
      </trkpt>
      <trkpt lat="47.27526" lon="-2.30529">
        <ele>18</ele>
        <time>2020-02-23T14:43:24+01:00</time>
      </trkpt>
      <trkpt lat="47.27522" lon="-2.30499">
        <ele>18</ele>
        <time>2020-02-23T14:43:37+01:00</time>
      </trkpt>
      <trkpt lat="47.2751" lon="-2.30463">
        <ele>18</ele>
        <time>2020-02-23T14:43:51+01:00</time>
      </trkpt>
      <trkpt lat="47.27501" lon="-2.30433">
        <ele>19</ele>
        <time>2020-02-23T14:44:10+01:00</time>
      </trkpt>
      <trkpt lat="47.27495" lon="-2.30401">
        <ele>20</ele>
        <time>2020-02-23T14:44:26+01:00</time>
      </trkpt>
      <trkpt lat="47.27491" lon="-2.30368">
        <ele>21</ele>
        <time>2020-02-23T14:44:40+01:00</time>
      </trkpt>
      <trkpt lat="47.27484" lon="-2.30336">
        <ele>22</ele>
        <time>2020-02-23T14:44:54+01:00</time>
      </trkpt>
      <trkpt lat="47.27477" lon="-2.30303">
        <ele>23</ele>
        <time>2020-02-23T14:45:08+01:00</time>
      </trkpt>
      <trkpt lat="47.27472" lon="-2.30269">
        <ele>24</ele>
        <time>2020-02-23T14:45:24+01:00</time>
      </trkpt>
      <trkpt lat="47.27466" lon="-2.30235">
        <ele>25</ele>
        <time>2020-02-23T14:45:38+01:00</time>
      </trkpt>
      <trkpt lat="47.27453" lon="-2.30208">
        <ele>26</ele>
        <time>2020-02-23T14:46:07+01:00</time>
      </trkpt>
      <trkpt lat="47.2745" lon="-2.30174">
        <ele>27</ele>
        <time>2020-02-23T14:46:40+01:00</time>
      </trkpt>
      <trkpt lat="47.27449" lon="-2.30141">
        <ele>27</ele>
        <time>2020-02-23T14:46:53+01:00</time>
      </trkpt>
      <trkpt lat="47.27442" lon="-2.30108">
        <ele>27</ele>
        <time>2020-02-23T14:47:07+01:00</time>
      </trkpt>
      <trkpt lat="47.27434" lon="-2.30077">
        <ele>27</ele>
        <time>2020-02-23T14:47:23+01:00</time>
      </trkpt>
      <trkpt lat="47.27419" lon="-2.3005">
        <ele>28</ele>
        <time>2020-02-23T14:47:37+01:00</time>
      </trkpt>
      <trkpt lat="47.27408" lon="-2.30019">
        <ele>29</ele>
        <time>2020-02-23T14:47:45+01:00</time>
      </trkpt>
      <trkpt lat="47.27398" lon="-2.29991">
        <ele>29</ele>
        <time>2020-02-23T14:47:56+01:00</time>
      </trkpt>
      <trkpt lat="47.2738" lon="-2.29956">
        <ele>30</ele>
        <time>2020-02-23T14:48:15+01:00</time>
      </trkpt>
      <trkpt lat="47.27365" lon="-2.29923">
        <ele>30</ele>
        <time>2020-02-23T14:48:32+01:00</time>
      </trkpt>
      <trkpt lat="47.27355" lon="-2.29897">
        <ele>30</ele>
        <time>2020-02-23T14:48:50+01:00</time>
      </trkpt>
      <trkpt lat="47.27344" lon="-2.29867">
        <ele>30</ele>
        <time>2020-02-23T14:49:02+01:00</time>
      </trkpt>
      <trkpt lat="47.27332" lon="-2.29837">
        <ele>30</ele>
        <time>2020-02-23T14:49:13+01:00</time>
      </trkpt>
      <trkpt lat="47.27316" lon="-2.29812">
        <ele>30</ele>
        <time>2020-02-23T14:49:27+01:00</time>
      </trkpt>
      <trkpt lat="47.27298" lon="-2.29792">
        <ele>30</ele>
        <time>2020-02-23T14:49:43+01:00</time>
      </trkpt>
      <trkpt lat="47.2729" lon="-2.29762">
        <ele>30</ele>
        <time>2020-02-23T14:49:56+01:00</time>
      </trkpt>
      <trkpt lat="47.27282" lon="-2.29739">
        <ele>30</ele>
        <time>2020-02-23T14:50:09+01:00</time>
      </trkpt>
      <trkpt lat="47.2727" lon="-2.29701">
        <ele>31</ele>
        <time>2020-02-23T14:50:23+01:00</time>
      </trkpt>
      <trkpt lat="47.27266" lon="-2.29667">
        <ele>31</ele>
        <time>2020-02-23T14:50:37+01:00</time>
      </trkpt>
      <trkpt lat="47.27262" lon="-2.29634">
        <ele>31</ele>
        <time>2020-02-23T14:51:01+01:00</time>
      </trkpt>
      <trkpt lat="47.27256" lon="-2.29601">
        <ele>31</ele>
        <time>2020-02-23T14:51:15+01:00</time>
      </trkpt>
      <trkpt lat="47.27251" lon="-2.29569">
        <ele>31</ele>
        <time>2020-02-23T14:51:29+01:00</time>
      </trkpt>
      <trkpt lat="47.27243" lon="-2.29538">
        <ele>31</ele>
        <time>2020-02-23T14:51:45+01:00</time>
      </trkpt>
      <trkpt lat="47.27231" lon="-2.29509">
        <ele>32</ele>
        <time>2020-02-23T14:52:13+01:00</time>
      </trkpt>
      <trkpt lat="47.27221" lon="-2.2948">
        <ele>31</ele>
        <time>2020-02-23T14:52:27+01:00</time>
      </trkpt>
      <trkpt lat="47.27212" lon="-2.29445">
        <ele>29</ele>
        <time>2020-02-23T14:52:42+01:00</time>
      </trkpt>
      <trkpt lat="47.27203" lon="-2.29415">
        <ele>28</ele>
        <time>2020-02-23T14:52:54+01:00</time>
      </trkpt>
      <trkpt lat="47.27193" lon="-2.29383">
        <ele>28</ele>
        <time>2020-02-23T14:53:09+01:00</time>
      </trkpt>
      <trkpt lat="47.27183" lon="-2.29353">
        <ele>29</ele>
        <time>2020-02-23T14:53:23+01:00</time>
      </trkpt>
      <trkpt lat="47.27165" lon="-2.29331">
        <ele>29</ele>
        <time>2020-02-23T14:53:36+01:00</time>
      </trkpt>
      <trkpt lat="47.2715" lon="-2.29309">
        <ele>29</ele>
        <time>2020-02-23T14:53:51+01:00</time>
      </trkpt>
      <trkpt lat="47.27161" lon="-2.29276">
        <ele>29</ele>
        <time>2020-02-23T14:54:28+01:00</time>
      </trkpt>
      <trkpt lat="47.27171" lon="-2.29244">
        <ele>29</ele>
        <time>2020-02-23T14:54:42+01:00</time>
      </trkpt>
      <trkpt lat="47.27164" lon="-2.29212">
        <ele>29</ele>
        <time>2020-02-23T14:54:54+01:00</time>
      </trkpt>
      <trkpt lat="47.27152" lon="-2.29183">
        <ele>29</ele>
        <time>2020-02-23T14:55:08+01:00</time>
      </trkpt>
      <trkpt lat="47.27131" lon="-2.29168">
        <ele>30</ele>
        <time>2020-02-23T14:55:51+01:00</time>
      </trkpt>
      <trkpt lat="47.27127" lon="-2.29148">
        <ele>30</ele>
        <time>2020-02-23T14:56:18+01:00</time>
      </trkpt>
      <trkpt lat="47.27131" lon="-2.29131">
        <ele>30</ele>
      </trkpt>
      <trkpt lat="47.27144" lon="-2.2912">
        <ele>29</ele>
        <time>2020-02-23T14:57:00+01:00</time>
      </trkpt>
      <trkpt lat="47.27162" lon="-2.29116">
        <ele>29</ele>
      </trkpt>
      <trkpt lat="47.2717" lon="-2.29102">
        <ele>28</ele>
      </trkpt>
      <trkpt lat="47.27124" lon="-2.29081">
        <ele>30</ele>
        <time>2020-02-23T14:57:18+01:00</time>
      </trkpt>
      <trkpt lat="47.27101" lon="-2.29068">
        <ele>30</ele>
        <time>2020-02-23T14:57:37+01:00</time>
      </trkpt>
      <trkpt lat="47.27078" lon="-2.29059">
        <ele>31</ele>
        <time>2020-02-23T14:57:55+01:00</time>
      </trkpt>
      <trkpt lat="47.27052" lon="-2.29048">
        <ele>30</ele>
        <time>2020-02-23T14:58:09+01:00</time>
      </trkpt>
      <trkpt lat="47.27039" lon="-2.29025">
        <ele>30</ele>
        <time>2020-02-23T14:58:47+01:00</time>
      </trkpt>
      <trkpt lat="47.27019" lon="-2.2901">
        <ele>30</ele>
        <time>2020-02-23T14:59:55+01:00</time>
      </trkpt>
      <trkpt lat="47.26995" lon="-2.29005">
        <ele>30</ele>
        <time>2020-02-23T15:00:10+01:00</time>
      </trkpt>
      <trkpt lat="47.26973" lon="-2.29002">
        <ele>30</ele>
        <time>2020-02-23T15:00:24+01:00</time>
      </trkpt>
      <trkpt lat="47.26952" lon="-2.28995">
        <ele>31</ele>
        <time>2020-02-23T15:00:37+01:00</time>
      </trkpt>
      <trkpt lat="47.26931" lon="-2.28992">
        <ele>31</ele>
        <time>2020-02-23T15:00:50+01:00</time>
      </trkpt>
      <trkpt lat="47.26913" lon="-2.28998">
        <ele>31</ele>
        <time>2020-02-23T15:01:50+01:00</time>
      </trkpt>
      <trkpt lat="47.26892" lon="-2.2902">
        <ele>31</ele>
        <time>2020-02-23T15:02:04+01:00</time>
      </trkpt>
      <trkpt lat="47.26869" lon="-2.2903">
        <ele>31</ele>
        <time>2020-02-23T15:02:17+01:00</time>
      </trkpt>
      <trkpt lat="47.2685" lon="-2.29052">
        <ele>31</ele>
        <time>2020-02-23T15:02:32+01:00</time>
      </trkpt>
      <trkpt lat="47.2683" lon="-2.29072">
        <ele>32</ele>
        <time>2020-02-23T15:02:45+01:00</time>
      </trkpt>
      <trkpt lat="47.26812" lon="-2.29092">
        <ele>33</ele>
        <time>2020-02-23T15:03:01+01:00</time>
      </trkpt>
      <trkpt lat="47.26791" lon="-2.29107">
        <ele>34</ele>
        <time>2020-02-23T15:03:13+01:00</time>
      </trkpt>
      <trkpt lat="47.26771" lon="-2.29126">
        <ele>34</ele>
        <time>2020-02-23T15:03:25+01:00</time>
      </trkpt>
      <trkpt lat="47.26754" lon="-2.29147">
        <ele>34</ele>
        <time>2020-02-23T15:03:41+01:00</time>
      </trkpt>
      <trkpt lat="47.26734" lon="-2.29163">
        <ele>35</ele>
        <time>2020-02-23T15:03:56+01:00</time>
      </trkpt>
      <trkpt lat="47.26717" lon="-2.29186">
        <ele>36</ele>
        <time>2020-02-23T15:04:09+01:00</time>
      </trkpt>
      <trkpt lat="47.26697" lon="-2.29205">
        <ele>37</ele>
        <time>2020-02-23T15:04:21+01:00</time>
      </trkpt>
      <trkpt lat="47.26677" lon="-2.29222">
        <ele>37</ele>
        <time>2020-02-23T15:04:34+01:00</time>
      </trkpt>
      <trkpt lat="47.26658" lon="-2.2924">
        <ele>37</ele>
        <time>2020-02-23T15:04:46+01:00</time>
      </trkpt>
      <trkpt lat="47.26639" lon="-2.2926">
        <ele>37</ele>
        <time>2020-02-23T15:05:01+01:00</time>
      </trkpt>
      <trkpt lat="47.26618" lon="-2.29274">
        <ele>38</ele>
        <time>2020-02-23T15:05:15+01:00</time>
      </trkpt>
      <trkpt lat="47.26596" lon="-2.2929">
        <ele>39</ele>
        <time>2020-02-23T15:05:27+01:00</time>
      </trkpt>
      <trkpt lat="47.26574" lon="-2.29302">
        <ele>39</ele>
        <time>2020-02-23T15:05:42+01:00</time>
      </trkpt>
      <trkpt lat="47.26553" lon="-2.29315">
        <ele>40</ele>
        <time>2020-02-23T15:05:55+01:00</time>
      </trkpt>
      <trkpt lat="47.26532" lon="-2.29329">
        <ele>40</ele>
        <time>2020-02-23T15:06:07+01:00</time>
      </trkpt>
      <trkpt lat="47.2651" lon="-2.29337">
        <ele>40</ele>
        <time>2020-02-23T15:06:23+01:00</time>
      </trkpt>
      <trkpt lat="47.26486" lon="-2.29342">
        <ele>40</ele>
        <time>2020-02-23T15:06:36+01:00</time>
      </trkpt>
      <trkpt lat="47.26463" lon="-2.29337">
        <ele>40</ele>
        <time>2020-02-23T15:06:51+01:00</time>
      </trkpt>
      <trkpt lat="47.26443" lon="-2.29322">
        <ele>40</ele>
        <time>2020-02-23T15:07:05+01:00</time>
      </trkpt>
      <trkpt lat="47.26421" lon="-2.2931">
        <ele>40</ele>
        <time>2020-02-23T15:07:18+01:00</time>
      </trkpt>
      <trkpt lat="47.26398" lon="-2.29297">
        <ele>40</ele>
        <time>2020-02-23T15:08:00+01:00</time>
      </trkpt>
      <trkpt lat="47.26375" lon="-2.29284">
        <ele>40</ele>
        <time>2020-02-23T15:08:14+01:00</time>
      </trkpt>
      <trkpt lat="47.26354" lon="-2.29273">
        <ele>39</ele>
        <time>2020-02-23T15:08:26+01:00</time>
      </trkpt>
      <trkpt lat="47.26332" lon="-2.29268">
        <ele>39</ele>
        <time>2020-02-23T15:08:38+01:00</time>
      </trkpt>
      <trkpt lat="47.26308" lon="-2.29272">
        <ele>39</ele>
        <time>2020-02-23T15:08:51+01:00</time>
      </trkpt>
      <trkpt lat="47.26286" lon="-2.29279">
        <ele>38</ele>
        <time>2020-02-23T15:09:04+01:00</time>
      </trkpt>
      <trkpt lat="47.26265" lon="-2.29293">
        <ele>38</ele>
        <time>2020-02-23T15:09:18+01:00</time>
      </trkpt>
      <trkpt lat="47.26243" lon="-2.29306">
        <ele>38</ele>
        <time>2020-02-23T15:09:30+01:00</time>
      </trkpt>
      <trkpt lat="47.26224" lon="-2.29324">
        <ele>37</ele>
        <time>2020-02-23T15:09:45+01:00</time>
      </trkpt>
      <trkpt lat="47.26203" lon="-2.29339">
        <ele>36</ele>
        <time>2020-02-23T15:09:58+01:00</time>
      </trkpt>
      <trkpt lat="47.26183" lon="-2.29358">
        <ele>36</ele>
        <time>2020-02-23T15:10:10+01:00</time>
      </trkpt>
      <trkpt lat="47.2616" lon="-2.29359">
        <ele>35</ele>
        <time>2020-02-23T15:10:24+01:00</time>
      </trkpt>
      <trkpt lat="47.26139" lon="-2.29347">
        <ele>34</ele>
        <time>2020-02-23T15:10:48+01:00</time>
      </trkpt>
      <trkpt lat="47.26129" lon="-2.2938">
        <ele>33</ele>
        <time>2020-02-23T15:11:19+01:00</time>
      </trkpt>
      <trkpt lat="47.26121" lon="-2.29413">
        <ele>33</ele>
        <time>2020-02-23T15:11:32+01:00</time>
      </trkpt>
      <trkpt lat="47.2612" lon="-2.29447">
        <ele>33</ele>
        <time>2020-02-23T15:11:45+01:00</time>
      </trkpt>
      <trkpt lat="47.26127" lon="-2.29479">
        <ele>33</ele>
        <time>2020-02-23T15:11:59+01:00</time>
      </trkpt>
      <trkpt lat="47.2614" lon="-2.29508">
        <ele>33</ele>
        <time>2020-02-23T15:12:12+01:00</time>
      </trkpt>
      <trkpt lat="47.26166" lon="-2.29525">
        <ele>34</ele>
        <time>2020-02-23T15:12:26+01:00</time>
      </trkpt>
      <trkpt lat="47.26183" lon="-2.29536">
        <ele>35</ele>
      </trkpt>
      <trkpt lat="47.26197" lon="-2.29564">
        <ele>36</ele>
        <time>2020-02-23T15:12:41+01:00</time>
      </trkpt>
      <trkpt lat="47.26168" lon="-2.29573">
        <ele>35</ele>
        <time>2020-02-23T15:13:19+01:00</time>
      </trkpt>
      <trkpt lat="47.26145" lon="-2.29583">
        <ele>34</ele>
        <time>2020-02-23T15:13:32+01:00</time>
      </trkpt>
      <trkpt lat="47.26123" lon="-2.29595">
        <ele>32</ele>
        <time>2020-02-23T15:13:44+01:00</time>
      </trkpt>
      <trkpt lat="47.26101" lon="-2.29605">
        <ele>31</ele>
        <time>2020-02-23T15:13:56+01:00</time>
      </trkpt>
      <trkpt lat="47.26078" lon="-2.29611">
        <ele>29</ele>
        <time>2020-02-23T15:14:11+01:00</time>
      </trkpt>
      <trkpt lat="47.26055" lon="-2.2962">
        <ele>28</ele>
        <time>2020-02-23T15:14:25+01:00</time>
      </trkpt>
      <trkpt lat="47.26032" lon="-2.29624">
        <ele>27</ele>
        <time>2020-02-23T15:14:38+01:00</time>
      </trkpt>
      <trkpt lat="47.2601" lon="-2.29629">
        <ele>26</ele>
        <time>2020-02-23T15:14:54+01:00</time>
      </trkpt>
      <trkpt lat="47.2599" lon="-2.29631">
        <ele>25</ele>
        <time>2020-02-23T15:15:10+01:00</time>
      </trkpt>
      <trkpt lat="47.25962" lon="-2.29636">
        <ele>25</ele>
        <time>2020-02-23T15:15:26+01:00</time>
      </trkpt>
      <trkpt lat="47.25944" lon="-2.29622">
        <ele>25</ele>
        <time>2020-02-23T15:15:44+01:00</time>
      </trkpt>
      <trkpt lat="47.25937" lon="-2.29646">
        <ele>25</ele>
        <time>2020-02-23T15:17:14+01:00</time>
      </trkpt>
      <trkpt lat="47.25936" lon="-2.29686">
        <ele>23</ele>
        <time>2020-02-23T15:17:26+01:00</time>
      </trkpt>
      <trkpt lat="47.25932" lon="-2.29721">
        <ele>22</ele>
        <time>2020-02-23T15:17:36+01:00</time>
      </trkpt>
      <trkpt lat="47.2594" lon="-2.29754">
        <ele>21</ele>
        <time>2020-02-23T15:17:51+01:00</time>
      </trkpt>
      <trkpt lat="47.25948" lon="-2.29785">
        <ele>20</ele>
        <time>2020-02-23T15:18:05+01:00</time>
      </trkpt>
      <trkpt lat="47.25952" lon="-2.29818">
        <ele>19</ele>
        <time>2020-02-23T15:18:20+01:00</time>
      </trkpt>
      <trkpt lat="47.25958" lon="-2.2985">
        <ele>19</ele>
        <time>2020-02-23T15:18:42+01:00</time>
      </trkpt>
      <trkpt lat="47.25966" lon="-2.29882">
        <ele>19</ele>
        <time>2020-02-23T15:18:58+01:00</time>
      </trkpt>
      <trkpt lat="47.25995" lon="-2.29923">
        <ele>19</ele>
        <time>2020-02-23T15:19:12+01:00</time>
      </trkpt>
      <trkpt lat="47.25981" lon="-2.29951">
        <ele>19</ele>
        <time>2020-02-23T15:19:47+01:00</time>
      </trkpt>
      <trkpt lat="47.25974" lon="-2.29988">
        <ele>19</ele>
        <time>2020-02-23T15:20:01+01:00</time>
      </trkpt>
      <trkpt lat="47.25969" lon="-2.3002">
        <ele>19</ele>
        <time>2020-02-23T15:20:15+01:00</time>
      </trkpt>
      <trkpt lat="47.25967" lon="-2.30053">
        <ele>19</ele>
        <time>2020-02-23T15:20:26+01:00</time>
      </trkpt>
      <trkpt lat="47.25965" lon="-2.30087">
        <ele>19</ele>
        <time>2020-02-23T15:20:39+01:00</time>
      </trkpt>
      <trkpt lat="47.25964" lon="-2.30122">
        <ele>19</ele>
        <time>2020-02-23T15:20:54+01:00</time>
      </trkpt>
      <trkpt lat="47.25986" lon="-2.30136">
        <ele>20</ele>
        <time>2020-02-23T15:22:20+01:00</time>
      </trkpt>
      <trkpt lat="47.26008" lon="-2.30142">
        <ele>21</ele>
        <time>2020-02-23T15:22:49+01:00</time>
      </trkpt>
      <trkpt lat="47.26031" lon="-2.30152">
        <ele>23</ele>
        <time>2020-02-23T15:23:07+01:00</time>
      </trkpt>
      <trkpt lat="47.26054" lon="-2.30149">
        <ele>24</ele>
        <time>2020-02-23T15:23:25+01:00</time>
      </trkpt>
      <trkpt lat="47.26082" lon="-2.30161">
        <ele>26</ele>
        <time>2020-02-23T15:23:41+01:00</time>
      </trkpt>
      <trkpt lat="47.26102" lon="-2.30163">
        <ele>26</ele>
        <time>2020-02-23T15:24:13+01:00</time>
      </trkpt>
      <trkpt lat="47.26124" lon="-2.30157">
        <ele>27</ele>
        <time>2020-02-23T15:24:23+01:00</time>
      </trkpt>
      <trkpt lat="47.26149" lon="-2.30149">
        <ele>27</ele>
        <time>2020-02-23T15:24:34+01:00</time>
      </trkpt>
      <trkpt lat="47.26169" lon="-2.30149">
        <ele>28</ele>
        <time>2020-02-23T15:24:48+01:00</time>
      </trkpt>
      <trkpt lat="47.26179" lon="-2.30156">
        <ele>28</ele>
      </trkpt>
      <trkpt lat="47.26193" lon="-2.30149">
        <ele>29</ele>
        <time>2020-02-23T15:25:02+01:00</time>
      </trkpt>
      <trkpt lat="47.26216" lon="-2.30139">
        <ele>30</ele>
        <time>2020-02-23T15:25:15+01:00</time>
      </trkpt>
      <trkpt lat="47.2625" lon="-2.30129">
        <ele>31</ele>
        <time>2020-02-23T15:25:30+01:00</time>
      </trkpt>
      <trkpt lat="47.26254" lon="-2.30156">
        <ele>30</ele>
        <time>2020-02-23T15:26:26+01:00</time>
      </trkpt>
      <trkpt lat="47.26264" lon="-2.30187">
        <ele>30</ele>
        <time>2020-02-23T15:26:40+01:00</time>
      </trkpt>
      <trkpt lat="47.26271" lon="-2.30219">
        <ele>29</ele>
        <time>2020-02-23T15:26:53+01:00</time>
      </trkpt>
      <trkpt lat="47.26276" lon="-2.30253">
        <ele>29</ele>
        <time>2020-02-23T15:27:06+01:00</time>
      </trkpt>
      <trkpt lat="47.26282" lon="-2.30286">
        <ele>28</ele>
        <time>2020-02-23T15:27:20+01:00</time>
      </trkpt>
      <trkpt lat="47.26292" lon="-2.30316">
        <ele>28</ele>
        <time>2020-02-23T15:27:33+01:00</time>
      </trkpt>
      <trkpt lat="47.26304" lon="-2.30346">
        <ele>28</ele>
        <time>2020-02-23T15:27:47+01:00</time>
      </trkpt>
      <trkpt lat="47.26307" lon="-2.30381">
        <ele>28</ele>
        <time>2020-02-23T15:28:01+01:00</time>
      </trkpt>
      <trkpt lat="47.26313" lon="-2.30413">
        <ele>28</ele>
        <time>2020-02-23T15:28:14+01:00</time>
      </trkpt>
      <trkpt lat="47.26319" lon="-2.30446">
        <ele>28</ele>
        <time>2020-02-23T15:28:27+01:00</time>
      </trkpt>
      <trkpt lat="47.26326" lon="-2.30478">
        <ele>27</ele>
        <time>2020-02-23T15:28:41+01:00</time>
      </trkpt>
      <trkpt lat="47.26332" lon="-2.30511">
        <ele>27</ele>
        <time>2020-02-23T15:28:55+01:00</time>
      </trkpt>
      <trkpt lat="47.2634" lon="-2.30543">
        <ele>27</ele>
        <time>2020-02-23T15:29:11+01:00</time>
      </trkpt>
      <trkpt lat="47.26344" lon="-2.30576">
        <ele>26</ele>
        <time>2020-02-23T15:29:42+01:00</time>
      </trkpt>
      <trkpt lat="47.26359" lon="-2.30605">
        <ele>26</ele>
        <time>2020-02-23T15:29:56+01:00</time>
      </trkpt>
      <trkpt lat="47.2637" lon="-2.30636">
        <ele>26</ele>
        <time>2020-02-23T15:30:11+01:00</time>
      </trkpt>
      <trkpt lat="47.26382" lon="-2.30665">
        <ele>25</ele>
        <time>2020-02-23T15:30:26+01:00</time>
      </trkpt>
      <trkpt lat="47.26402" lon="-2.30681">
        <ele>26</ele>
        <time>2020-02-23T15:30:50+01:00</time>
      </trkpt>
      <trkpt lat="47.2642" lon="-2.307">
        <ele>26</ele>
        <time>2020-02-23T15:31:09+01:00</time>
      </trkpt>
      <trkpt lat="47.26431" lon="-2.3073">
        <ele>26</ele>
        <time>2020-02-23T15:31:28+01:00</time>
      </trkpt>
      <trkpt lat="47.26446" lon="-2.30759">
        <ele>26</ele>
        <time>2020-02-23T15:31:45+01:00</time>
      </trkpt>
      <trkpt lat="47.26459" lon="-2.30788">
        <ele>25</ele>
        <time>2020-02-23T15:31:59+01:00</time>
      </trkpt>
      <trkpt lat="47.2647" lon="-2.30819">
        <ele>25</ele>
        <time>2020-02-23T15:32:16+01:00</time>
      </trkpt>
      <trkpt lat="47.26479" lon="-2.30849">
        <ele>24</ele>
        <time>2020-02-23T15:32:39+01:00</time>
      </trkpt>
      <trkpt lat="47.265" lon="-2.30888">
        <ele>24</ele>
        <time>2020-02-23T15:33:11+01:00</time>
      </trkpt>
      <trkpt lat="47.26512" lon="-2.30882">
        <ele>25</ele>
        <time>2020-02-23T15:33:52+01:00</time>
      </trkpt>
      <trkpt lat="47.26529" lon="-2.30857">
        <ele>26</ele>
        <time>2020-02-23T15:34:08+01:00</time>
      </trkpt>
      <trkpt lat="47.26547" lon="-2.30835">
        <ele>27</ele>
        <time>2020-02-23T15:34:35+01:00</time>
      </trkpt>
      <trkpt lat="47.26565" lon="-2.30813">
        <ele>27</ele>
        <time>2020-02-23T15:34:52+01:00</time>
      </trkpt>
      <trkpt lat="47.26582" lon="-2.30792">
        <ele>28</ele>
        <time>2020-02-23T15:35:09+01:00</time>
      </trkpt>
      <trkpt lat="47.26603" lon="-2.30772">
        <ele>28</ele>
        <time>2020-02-23T15:35:30+01:00</time>
      </trkpt>
      <trkpt lat="47.26622" lon="-2.30745">
        <ele>28</ele>
        <time>2020-02-23T15:35:47+01:00</time>
      </trkpt>
      <trkpt lat="47.2664" lon="-2.30716">
        <ele>28</ele>
        <time>2020-02-23T15:36:02+01:00</time>
      </trkpt>
      <trkpt lat="47.26661" lon="-2.30691">
        <ele>28</ele>
        <time>2020-02-23T15:36:39+01:00</time>
      </trkpt>
      <trkpt lat="47.2667" lon="-2.30715">
        <ele>27</ele>
        <time>2020-02-23T15:36:56+01:00</time>
      </trkpt>
      <trkpt lat="47.26682" lon="-2.30744">
        <ele>27</ele>
        <time>2020-02-23T15:37:11+01:00</time>
      </trkpt>
      <trkpt lat="47.26694" lon="-2.30773">
        <ele>27</ele>
        <time>2020-02-23T15:37:24+01:00</time>
      </trkpt>
      <trkpt lat="47.26703" lon="-2.30803">
        <ele>28</ele>
        <time>2020-02-23T15:37:39+01:00</time>
      </trkpt>
      <trkpt lat="47.26718" lon="-2.3083">
        <ele>28</ele>
        <time>2020-02-23T15:37:54+01:00</time>
      </trkpt>
      <trkpt lat="47.26742" lon="-2.30874">
        <ele>28</ele>
        <time>2020-02-23T15:38:10+01:00</time>
      </trkpt>
      <trkpt lat="47.26758" lon="-2.30856">
        <ele>28</ele>
        <time>2020-02-23T15:38:29+01:00</time>
      </trkpt>
      <trkpt lat="47.26776" lon="-2.30841">
        <ele>27</ele>
        <time>2020-02-23T15:38:44+01:00</time>
      </trkpt>
      <trkpt lat="47.26796" lon="-2.30815">
        <ele>27</ele>
        <time>2020-02-23T15:38:57+01:00</time>
      </trkpt>
      <trkpt lat="47.26831" lon="-2.30796">
        <ele>27</ele>
        <time>2020-02-23T15:39:10+01:00</time>
      </trkpt>
      <trkpt lat="47.26827" lon="-2.30828">
        <ele>26</ele>
        <time>2020-02-23T15:39:52+01:00</time>
      </trkpt>
      <trkpt lat="47.26831" lon="-2.3086">
        <ele>26</ele>
        <time>2020-02-23T15:40:06+01:00</time>
      </trkpt>
      <trkpt lat="47.26836" lon="-2.30896">
        <ele>26</ele>
        <time>2020-02-23T15:40:20+01:00</time>
      </trkpt>
      <trkpt lat="47.26838" lon="-2.30927">
        <ele>26</ele>
        <time>2020-02-23T15:40:34+01:00</time>
      </trkpt>
      <trkpt lat="47.26843" lon="-2.30959">
        <ele>27</ele>
        <time>2020-02-23T15:40:48+01:00</time>
      </trkpt>
      <trkpt lat="47.26846" lon="-2.30992">
        <ele>28</ele>
        <time>2020-02-23T15:41:02+01:00</time>
      </trkpt>
      <trkpt lat="47.26851" lon="-2.31025">
        <ele>28</ele>
        <time>2020-02-23T15:41:16+01:00</time>
      </trkpt>
      <trkpt lat="47.26852" lon="-2.31057">
        <ele>28</ele>
        <time>2020-02-23T15:41:30+01:00</time>
      </trkpt>
      <trkpt lat="47.26853" lon="-2.3109">
        <ele>28</ele>
        <time>2020-02-23T15:41:47+01:00</time>
      </trkpt>
      <trkpt lat="47.2685" lon="-2.31129">
        <ele>29</ele>
        <time>2020-02-23T15:42:19+01:00</time>
      </trkpt>
      <trkpt lat="47.26849" lon="-2.31164">
        <ele>29</ele>
        <time>2020-02-23T15:42:33+01:00</time>
      </trkpt>
      <trkpt lat="47.26849" lon="-2.31197">
        <ele>28</ele>
        <time>2020-02-23T15:42:46+01:00</time>
      </trkpt>
      <trkpt lat="47.26848" lon="-2.3123">
        <ele>28</ele>
        <time>2020-02-23T15:42:59+01:00</time>
      </trkpt>
      <trkpt lat="47.26844" lon="-2.31265">
        <ele>28</ele>
        <time>2020-02-23T15:43:13+01:00</time>
      </trkpt>
      <trkpt lat="47.2684" lon="-2.31297">
        <ele>28</ele>
        <time>2020-02-23T15:43:27+01:00</time>
      </trkpt>
      <trkpt lat="47.2683" lon="-2.31338">
        <ele>28</ele>
        <time>2020-02-23T15:43:41+01:00</time>
      </trkpt>
      <trkpt lat="47.2681" lon="-2.31345">
        <ele>27</ele>
        <time>2020-02-23T15:44:35+01:00</time>
      </trkpt>
      <trkpt lat="47.2679" lon="-2.31361">
        <ele>27</ele>
        <time>2020-02-23T15:44:46+01:00</time>
      </trkpt>
      <trkpt lat="47.2677" lon="-2.31375">
        <ele>27</ele>
        <time>2020-02-23T15:45:01+01:00</time>
      </trkpt>
      <trkpt lat="47.26748" lon="-2.31384">
        <ele>26</ele>
        <time>2020-02-23T15:45:21+01:00</time>
      </trkpt>
      <trkpt lat="47.26728" lon="-2.31401">
        <ele>25</ele>
        <time>2020-02-23T15:45:37+01:00</time>
      </trkpt>
      <trkpt lat="47.26707" lon="-2.31415">
        <ele>24</ele>
        <time>2020-02-23T15:45:50+01:00</time>
      </trkpt>
      <trkpt lat="47.26685" lon="-2.31426">
        <ele>24</ele>
        <time>2020-02-23T15:46:05+01:00</time>
      </trkpt>
      <trkpt lat="47.26664" lon="-2.31439">
        <ele>23</ele>
        <time>2020-02-23T15:46:19+01:00</time>
      </trkpt>
      <trkpt lat="47.26643" lon="-2.31453">
        <ele>23</ele>
        <time>2020-02-23T15:46:30+01:00</time>
      </trkpt>
      <trkpt lat="47.26621" lon="-2.31466">
        <ele>22</ele>
        <time>2020-02-23T15:46:41+01:00</time>
      </trkpt>
      <trkpt lat="47.26609" lon="-2.31496">
        <ele>22</ele>
        <time>2020-02-23T15:47:14+01:00</time>
      </trkpt>
      <trkpt lat="47.26617" lon="-2.31527">
        <ele>21</ele>
        <time>2020-02-23T15:47:28+01:00</time>
      </trkpt>
      <trkpt lat="47.26628" lon="-2.31555">
        <ele>20</ele>
        <time>2020-02-23T15:47:40+01:00</time>
      </trkpt>
      <trkpt lat="47.26608" lon="-2.3157">
        <ele>19</ele>
        <time>2020-02-23T15:47:55+01:00</time>
      </trkpt>
      <trkpt lat="47.26587" lon="-2.31584">
        <ele>17</ele>
        <time>2020-02-23T15:48:08+01:00</time>
      </trkpt>
      <trkpt lat="47.26566" lon="-2.31599">
        <ele>16</ele>
        <time>2020-02-23T15:48:23+01:00</time>
      </trkpt>
      <trkpt lat="47.26545" lon="-2.31611">
        <ele>15</ele>
        <time>2020-02-23T15:48:35+01:00</time>
      </trkpt>
      <trkpt lat="47.26524" lon="-2.31622">
        <ele>15</ele>
        <time>2020-02-23T15:48:48+01:00</time>
      </trkpt>
      <trkpt lat="47.26501" lon="-2.31633">
        <ele>13</ele>
        <time>2020-02-23T15:49:02+01:00</time>
      </trkpt>
      <trkpt lat="47.26478" lon="-2.31639">
        <ele>12</ele>
        <time>2020-02-23T15:49:14+01:00</time>
      </trkpt>
      <trkpt lat="47.26453" lon="-2.31647">
        <ele>10</ele>
        <time>2020-02-23T15:49:28+01:00</time>
      </trkpt>
      <trkpt lat="47.2643" lon="-2.31652">
        <ele>9</ele>
        <time>2020-02-23T15:49:42+01:00</time>
      </trkpt>
      <trkpt lat="47.26406" lon="-2.31657">
        <ele>8</ele>
        <time>2020-02-23T15:49:58+01:00</time>
      </trkpt>
      <trkpt lat="47.26384" lon="-2.31672">
        <ele>7</ele>
        <time>2020-02-23T15:50:10+01:00</time>
      </trkpt>
      <trkpt lat="47.26362" lon="-2.31688">
        <ele>6</ele>
        <time>2020-02-23T15:50:25+01:00</time>
      </trkpt>
      <trkpt lat="47.26337" lon="-2.31699">
        <ele>6</ele>
        <time>2020-02-23T15:50:38+01:00</time>
      </trkpt>
      <trkpt lat="47.26319" lon="-2.31711">
        <ele>5</ele>
        <time>2020-02-23T15:50:57+01:00</time>
      </trkpt>
      <trkpt lat="47.263" lon="-2.31717">
        <ele>5</ele>
        <time>2020-02-23T15:51:20+01:00</time>
      </trkpt>
      <trkpt lat="47.263" lon="-2.31751">
        <ele>5</ele>
        <time>2020-02-23T15:51:33+01:00</time>
      </trkpt>
      <trkpt lat="47.263" lon="-2.31783">
        <ele>4</ele>
        <time>2020-02-23T15:51:48+01:00</time>
      </trkpt>
      <trkpt lat="47.26302" lon="-2.3182">
        <ele>4</ele>
        <time>2020-02-23T15:52:03+01:00</time>
      </trkpt>
      <trkpt lat="47.26298" lon="-2.31852">
        <ele>4</ele>
        <time>2020-02-23T15:52:18+01:00</time>
      </trkpt>
      <trkpt lat="47.263" lon="-2.31886">
        <ele>4</ele>
        <time>2020-02-23T15:52:35+01:00</time>
      </trkpt>
      <trkpt lat="47.26302" lon="-2.31929">
        <ele>4</ele>
        <time>2020-02-23T15:53:43+01:00</time>
      </trkpt>
      <trkpt lat="47.26321" lon="-2.31933">
        <ele>4</ele>
        <time>2020-02-23T15:54:00+01:00</time>
      </trkpt>
      <trkpt lat="47.26343" lon="-2.31933">
        <ele>5</ele>
        <time>2020-02-23T15:54:18+01:00</time>
      </trkpt>
      <trkpt lat="47.26356" lon="-2.31965">
        <ele>7</ele>
        <time>2020-02-23T15:54:47+01:00</time>
      </trkpt>
      <trkpt lat="47.26377" lon="-2.31981">
        <ele>8</ele>
        <time>2020-02-23T15:55:21+01:00</time>
      </trkpt>
      <trkpt lat="47.26402" lon="-2.31985">
        <ele>10</ele>
        <time>2020-02-23T15:55:49+01:00</time>
      </trkpt>
      <trkpt lat="47.2642" lon="-2.31993">
        <ele>11</ele>
        <time>2020-02-23T15:56:20+01:00</time>
      </trkpt>
      <trkpt lat="47.26443" lon="-2.31986">
        <ele>11</ele>
        <time>2020-02-23T15:56:42+01:00</time>
      </trkpt>
      <trkpt lat="47.26464" lon="-2.3199">
        <ele>12</ele>
        <time>2020-02-23T15:56:52+01:00</time>
      </trkpt>
      <trkpt lat="47.2649" lon="-2.31996">
        <ele>13</ele>
        <time>2020-02-23T15:57:09+01:00</time>
      </trkpt>
      <trkpt lat="47.26514" lon="-2.31994">
        <ele>14</ele>
        <time>2020-02-23T15:57:23+01:00</time>
      </trkpt>
      <trkpt lat="47.26533" lon="-2.32017">
        <ele>15</ele>
        <time>2020-02-23T15:57:39+01:00</time>
      </trkpt>
      <trkpt lat="47.26544" lon="-2.32034">
        <ele>16</ele>
        <time>2020-02-23T15:58:29+01:00</time>
      </trkpt>
      <trkpt lat="47.26574" lon="-2.32024">
        <ele>17</ele>
        <time>2020-02-23T15:58:41+01:00</time>
      </trkpt>
      <trkpt lat="47.26596" lon="-2.32016">
        <ele>18</ele>
        <time>2020-02-23T15:58:53+01:00</time>
      </trkpt>
      <trkpt lat="47.26617" lon="-2.32007">
        <ele>19</ele>
        <time>2020-02-23T15:59:10+01:00</time>
      </trkpt>
      <trkpt lat="47.26647" lon="-2.31995">
        <ele>19</ele>
        <time>2020-02-23T15:59:24+01:00</time>
      </trkpt>
      <trkpt lat="47.2665" lon="-2.32036">
        <ele>20</ele>
        <time>2020-02-23T15:59:57+01:00</time>
      </trkpt>
      <trkpt lat="47.26658" lon="-2.32067">
        <ele>21</ele>
        <time>2020-02-23T16:00:10+01:00</time>
      </trkpt>
      <trkpt lat="47.26666" lon="-2.32101">
        <ele>21</ele>
        <time>2020-02-23T16:00:24+01:00</time>
      </trkpt>
      <trkpt lat="47.26675" lon="-2.32129">
        <ele>20</ele>
        <time>2020-02-23T16:00:54+01:00</time>
      </trkpt>
      <trkpt lat="47.26679" lon="-2.32161">
        <ele>20</ele>
        <time>2020-02-23T16:01:06+01:00</time>
      </trkpt>
      <trkpt lat="47.26687" lon="-2.32193">
        <ele>19</ele>
        <time>2020-02-23T16:01:19+01:00</time>
      </trkpt>
      <trkpt lat="47.26698" lon="-2.3223">
        <ele>19</ele>
        <time>2020-02-23T16:01:35+01:00</time>
      </trkpt>
      <trkpt lat="47.26681" lon="-2.32258">
        <ele>19</ele>
        <time>2020-02-23T16:01:50+01:00</time>
      </trkpt>
      <trkpt lat="47.26658" lon="-2.32279">
        <ele>19</ele>
        <time>2020-02-23T16:02:04+01:00</time>
      </trkpt>
      <trkpt lat="47.26638" lon="-2.32296">
        <ele>18</ele>
        <time>2020-02-23T16:02:18+01:00</time>
      </trkpt>
      <trkpt lat="47.26618" lon="-2.32315">
        <ele>18</ele>
        <time>2020-02-23T16:02:30+01:00</time>
      </trkpt>
      <trkpt lat="47.266" lon="-2.32335">
        <ele>17</ele>
        <time>2020-02-23T16:02:44+01:00</time>
      </trkpt>
      <trkpt lat="47.26577" lon="-2.32347">
        <ele>16</ele>
        <time>2020-02-23T16:02:57+01:00</time>
      </trkpt>
      <trkpt lat="47.26553" lon="-2.32354">
        <ele>15</ele>
        <time>2020-02-23T16:03:11+01:00</time>
      </trkpt>
      <trkpt lat="47.2653" lon="-2.32357">
        <ele>14</ele>
        <time>2020-02-23T16:03:24+01:00</time>
      </trkpt>
      <trkpt lat="47.26508" lon="-2.32367">
        <ele>13</ele>
        <time>2020-02-23T16:03:37+01:00</time>
      </trkpt>
      <trkpt lat="47.26486" lon="-2.32377">
        <ele>12</ele>
        <time>2020-02-23T16:03:49+01:00</time>
      </trkpt>
      <trkpt lat="47.26464" lon="-2.3239">
        <ele>11</ele>
        <time>2020-02-23T16:04:02+01:00</time>
      </trkpt>
      <trkpt lat="47.26442" lon="-2.32406">
        <ele>10</ele>
        <time>2020-02-23T16:04:15+01:00</time>
      </trkpt>
      <trkpt lat="47.2642" lon="-2.32421">
        <ele>9</ele>
        <time>2020-02-23T16:04:29+01:00</time>
      </trkpt>
      <trkpt lat="47.264" lon="-2.32436">
        <ele>8</ele>
        <time>2020-02-23T16:04:42+01:00</time>
      </trkpt>
      <trkpt lat="47.26378" lon="-2.32452">
        <ele>8</ele>
        <time>2020-02-23T16:04:55+01:00</time>
      </trkpt>
      <trkpt lat="47.26357" lon="-2.32468">
        <ele>7</ele>
        <time>2020-02-23T16:05:09+01:00</time>
      </trkpt>
      <trkpt lat="47.26336" lon="-2.32485">
        <ele>6</ele>
        <time>2020-02-23T16:05:22+01:00</time>
      </trkpt>
      <trkpt lat="47.26317" lon="-2.32507">
        <ele>6</ele>
        <time>2020-02-23T16:05:36+01:00</time>
      </trkpt>
      <trkpt lat="47.26301" lon="-2.32545">
        <ele>5</ele>
        <time>2020-02-23T16:05:53+01:00</time>
      </trkpt>
      <trkpt lat="47.26303" lon="-2.32567">
        <ele>4</ele>
        <time>2020-02-23T16:06:14+01:00</time>
      </trkpt>
      <trkpt lat="47.26303" lon="-2.32605">
        <ele>3</ele>
        <time>2020-02-23T16:06:28+01:00</time>
      </trkpt>
      <trkpt lat="47.26306" lon="-2.32636">
        <ele>3</ele>
        <time>2020-02-23T16:06:41+01:00</time>
      </trkpt>
      <trkpt lat="47.26309" lon="-2.3267">
        <ele>2</ele>
        <time>2020-02-23T16:06:54+01:00</time>
      </trkpt>
      <trkpt lat="47.26315" lon="-2.32704">
        <ele>2</ele>
        <time>2020-02-23T16:07:09+01:00</time>
      </trkpt>
      <trkpt lat="47.26328" lon="-2.32733">
        <ele>2</ele>
        <time>2020-02-23T16:07:23+01:00</time>
      </trkpt>
      <trkpt lat="47.26338" lon="-2.32764">
        <ele>2</ele>
        <time>2020-02-23T16:07:37+01:00</time>
      </trkpt>
      <trkpt lat="47.26368" lon="-2.32842">
        <ele>2</ele>
        <time>2020-02-23T16:08:12+01:00</time>
      </trkpt>
      <trkpt lat="47.26379" lon="-2.32873">
        <ele>2</ele>
        <time>2020-02-23T16:08:26+01:00</time>
      </trkpt>
      <trkpt lat="47.26392" lon="-2.32903">
        <ele>3</ele>
        <time>2020-02-23T16:08:40+01:00</time>
      </trkpt>
      <trkpt lat="47.26402" lon="-2.32933">
        <ele>3</ele>
        <time>2020-02-23T16:08:54+01:00</time>
      </trkpt>
      <trkpt lat="47.26411" lon="-2.32965">
        <ele>3</ele>
        <time>2020-02-23T16:09:08+01:00</time>
      </trkpt>
      <trkpt lat="47.26426" lon="-2.32992">
        <ele>3</ele>
        <time>2020-02-23T16:09:21+01:00</time>
      </trkpt>
      <trkpt lat="47.26444" lon="-2.33013">
        <ele>4</ele>
        <time>2020-02-23T16:09:34+01:00</time>
      </trkpt>
      <trkpt lat="47.26464" lon="-2.33034">
        <ele>4</ele>
        <time>2020-02-23T16:09:48+01:00</time>
      </trkpt>
      <trkpt lat="47.26483" lon="-2.33055">
        <ele>3</ele>
        <time>2020-02-23T16:10:03+01:00</time>
      </trkpt>
      <trkpt lat="47.26503" lon="-2.33074">
        <ele>3</ele>
        <time>2020-02-23T16:10:16+01:00</time>
      </trkpt>
      <trkpt lat="47.26523" lon="-2.33093">
        <ele>3</ele>
        <time>2020-02-23T16:10:28+01:00</time>
      </trkpt>
      <trkpt lat="47.26545" lon="-2.33106">
        <ele>3</ele>
        <time>2020-02-23T16:10:43+01:00</time>
      </trkpt>
      <trkpt lat="47.26565" lon="-2.33123">
        <ele>3</ele>
        <time>2020-02-23T16:10:56+01:00</time>
      </trkpt>
      <trkpt lat="47.26587" lon="-2.33138">
        <ele>3</ele>
        <time>2020-02-23T16:11:10+01:00</time>
      </trkpt>
      <trkpt lat="47.2661" lon="-2.33148">
        <ele>2</ele>
        <time>2020-02-23T16:11:25+01:00</time>
      </trkpt>
      <trkpt lat="47.26633" lon="-2.33151">
        <ele>2</ele>
        <time>2020-02-23T16:11:38+01:00</time>
      </trkpt>
      <trkpt lat="47.26655" lon="-2.33138">
        <ele>2</ele>
        <time>2020-02-23T16:11:52+01:00</time>
      </trkpt>
      <trkpt lat="47.26674" lon="-2.33119">
        <ele>3</ele>
        <time>2020-02-23T16:12:06+01:00</time>
      </trkpt>
      <trkpt lat="47.26693" lon="-2.33102">
        <ele>4</ele>
        <time>2020-02-23T16:12:19+01:00</time>
      </trkpt>
      <trkpt lat="47.26712" lon="-2.33082">
        <ele>5</ele>
        <time>2020-02-23T16:12:35+01:00</time>
      </trkpt>
      <trkpt lat="47.2673" lon="-2.33055">
        <ele>6</ele>
        <time>2020-02-23T16:12:48+01:00</time>
      </trkpt>
    </trkseg>
  </trk>
</gpx>